OAL394 LGAV-LGSM
Flight info
| Callsign | OAL394 |
|---|---|
| Flight time | 0h 31m |
| Altitude | 23000 |
| Route | KEA L995 RIPLI P32 IKARO L609 URNIL |
| Aircraft | A320/M-SDE2GHIJ1RTWY/LB1 |
Departure
| Time | 2026-05-05 13:30 |
|---|---|
| Airport | Athens Eleftherios Venizelos International Airport (LGAV) |
Arrival
| Time | 2026-05-05 14:02 |
|---|---|
| Airport | Samos Airport (LGSM) |
| Time | Latitude | Longitude | Altitude | Speed | Heading |
|---|---|---|---|---|---|
| 2026-05-05 12:44 | 37.94026 | 23.95293 | 302 ft | 0 kts | 39° |
| 2026-05-05 13:19 | 37.94024 | 23.95291 | 300 ft | 3 kts | 39° |
| 2026-05-05 13:19 | 37.94003 | 23.95269 | 303 ft | 4 kts | 39° |
| 2026-05-05 13:20 | 37.93986 | 23.95252 | 301 ft | 3 kts | 39° |
| 2026-05-05 13:20 | 37.93969 | 23.95231 | 302 ft | 4 kts | 79° |
| 2026-05-05 13:20 | 37.93973 | 23.95215 | 301 ft | 4 kts | 120° |
| 2026-05-05 13:20 | 37.93976 | 23.95208 | 300 ft | 0 kts | 127° |
| 2026-05-05 13:22 | 37.93976 | 23.95209 | 300 ft | 1 kts | 127° |
| 2026-05-05 13:23 | 37.93960 | 23.95236 | 301 ft | 7 kts | 127° |
| 2026-05-05 13:23 | 37.93925 | 23.95294 | 300 ft | 10 kts | 127° |
| 2026-05-05 13:23 | 37.93876 | 23.95375 | 299 ft | 13 kts | 128° |
| 2026-05-05 13:23 | 37.93873 | 23.95492 | 298 ft | 17 kts | 41° |
| 2026-05-05 13:24 | 37.93974 | 23.95589 | 298 ft | 19 kts | 37° |
| 2026-05-05 13:24 | 37.94088 | 23.95698 | 298 ft | 22 kts | 37° |
| 2026-05-05 13:24 | 37.94215 | 23.95817 | 301 ft | 24 kts | 37° |
| 2026-05-05 13:24 | 37.94352 | 23.95948 | 299 ft | 25 kts | 37° |
| 2026-05-05 13:25 | 37.94498 | 23.96086 | 299 ft | 27 kts | 37° |
| 2026-05-05 13:25 | 37.94629 | 23.96211 | 300 ft | 22 kts | 38° |
| 2026-05-05 13:25 | 37.94757 | 23.96332 | 302 ft | 24 kts | 37° |
| 2026-05-05 13:25 | 37.94892 | 23.96462 | 302 ft | 25 kts | 36° |
| 2026-05-05 13:26 | 37.95018 | 23.96580 | 304 ft | 18 kts | 36° |
| 2026-05-05 13:26 | 37.95124 | 23.96680 | 305 ft | 20 kts | 37° |
| 2026-05-05 13:26 | 37.95239 | 23.96790 | 305 ft | 19 kts | 36° |
| 2026-05-05 13:26 | 37.95319 | 23.96865 | 303 ft | 15 kts | 37° |
| 2026-05-05 13:27 | 37.95381 | 23.96926 | 303 ft | 8 kts | 47° |
| 2026-05-05 13:27 | 37.95380 | 23.96994 | 304 ft | 9 kts | 124° |
| 2026-05-05 13:27 | 37.95329 | 23.97020 | 308 ft | 8 kts | 171° |
| 2026-05-05 13:27 | 37.95283 | 23.97029 | 310 ft | 6 kts | 172° |
| 2026-05-05 13:28 | 37.95240 | 23.97036 | 311 ft | 7 kts | 172° |
| 2026-05-05 13:28 | 37.95196 | 23.97027 | 310 ft | 3 kts | 212° |
| 2026-05-05 13:28 | 37.95185 | 23.97016 | 310 ft | 0 kts | 218° |
| 2026-05-05 13:29 | 37.95184 | 23.97015 | 310 ft | 1 kts | 218° |
| 2026-05-05 13:29 | 37.95128 | 23.96962 | 309 ft | 31 kts | 217° |
| 2026-05-05 13:29 | 37.94757 | 23.96611 | 302 ft | 99 kts | 217° |
| 2026-05-05 13:30 | 37.94062 | 23.95951 | 284 ft | 148 kts | 217° |
| 2026-05-05 13:30 | 37.93154 | 23.95123 | 621 ft | 162 kts | 208° |
| 2026-05-05 13:30 | 37.92153 | 23.94436 | 1156 ft | 165 kts | 207° |
| 2026-05-05 13:30 | 37.91138 | 23.93747 | 1828 ft | 165 kts | 210° |
| 2026-05-05 13:31 | 37.90127 | 23.93062 | 2467 ft | 164 kts | 211° |
| 2026-05-05 13:31 | 37.89121 | 23.92378 | 3068 ft | 165 kts | 212° |
| 2026-05-05 13:31 | 37.88106 | 23.91683 | 3595 ft | 171 kts | 211° |
| 2026-05-05 13:31 | 37.86983 | 23.90909 | 3854 ft | 193 kts | 211° |
| 2026-05-05 13:32 | 37.85729 | 23.90055 | 4098 ft | 216 kts | 207° |
| 2026-05-05 13:32 | 37.84202 | 23.89683 | 4504 ft | 236 kts | 174° |
| 2026-05-05 13:32 | 37.82674 | 23.90421 | 5336 ft | 239 kts | 142° |
| 2026-05-05 13:32 | 37.81580 | 23.92038 | 6138 ft | 241 kts | 120° |
| 2026-05-05 13:33 | 37.80935 | 23.93974 | 6920 ft | 240 kts | 96° |
| 2026-05-05 13:33 | 37.80801 | 23.96081 | 7701 ft | 241 kts | 90° |
| 2026-05-05 13:33 | 37.80716 | 23.98213 | 8494 ft | 244 kts | 89° |
| 2026-05-05 13:33 | 37.80637 | 24.00368 | 9280 ft | 247 kts | 89° |
| 2026-05-05 13:34 | 37.80558 | 24.02549 | 10051 ft | 250 kts | 89° |
| 2026-05-05 13:34 | 37.80478 | 24.04747 | 10771 ft | 252 kts | 89° |
| 2026-05-05 13:34 | 37.80395 | 24.06972 | 11520 ft | 255 kts | 89° |
| 2026-05-05 13:34 | 37.80311 | 24.09223 | 12279 ft | 258 kts | 88° |
| 2026-05-05 13:35 | 37.80226 | 24.11499 | 13018 ft | 260 kts | 88° |
| 2026-05-05 13:35 | 37.80139 | 24.13799 | 13761 ft | 263 kts | 88° |
| 2026-05-05 13:35 | 37.80050 | 24.16118 | 14421 ft | 266 kts | 88° |
| 2026-05-05 13:35 | 37.79959 | 24.18471 | 15049 ft | 270 kts | 88° |
| 2026-05-05 13:36 | 37.79866 | 24.20856 | 15670 ft | 273 kts | 87° |
| 2026-05-05 13:36 | 37.79772 | 24.23272 | 16300 ft | 277 kts | 87° |
| 2026-05-05 13:36 | 37.79678 | 24.25789 | 16518 ft | 298 kts | 87° |
| 2026-05-05 13:36 | 37.79581 | 24.28507 | 16658 ft | 320 kts | 88° |
| 2026-05-05 13:37 | 37.79472 | 24.31415 | 16791 ft | 341 kts | 88° |
| 2026-05-05 13:37 | 37.79351 | 24.34499 | 16926 ft | 361 kts | 88° |
| 2026-05-05 13:37 | 37.79218 | 24.37734 | 17133 ft | 375 kts | 89° |
| 2026-05-05 13:37 | 37.79075 | 24.41031 | 17822 ft | 377 kts | 89° |
| 2026-05-05 13:38 | 37.78927 | 24.44362 | 18409 ft | 380 kts | 89° |
| 2026-05-05 13:38 | 37.78782 | 24.47717 | 18918 ft | 384 kts | 88° |
| 2026-05-05 13:38 | 37.78641 | 24.51098 | 19417 ft | 388 kts | 88° |
| 2026-05-05 13:38 | 37.78498 | 24.54522 | 19931 ft | 392 kts | 88° |
| 2026-05-05 13:39 | 37.78354 | 24.57984 | 20373 ft | 399 kts | 88° |
| 2026-05-05 13:39 | 37.78209 | 24.61549 | 20497 ft | 413 kts | 88° |
| 2026-05-05 13:39 | 37.78060 | 24.65231 | 20694 ft | 424 kts | 88° |
| 2026-05-05 13:39 | 37.77903 | 24.68974 | 20999 ft | 430 kts | 88° |
| 2026-05-05 13:40 | 37.77737 | 24.72774 | 21072 ft | 439 kts | 89° |
| 2026-05-05 13:40 | 37.77565 | 24.76692 | 21080 ft | 453 kts | 89° |
| 2026-05-05 13:40 | 37.77389 | 24.80730 | 21079 ft | 462 kts | 89° |
| 2026-05-05 13:40 | 37.77207 | 24.84789 | 21077 ft | 464 kts | 89° |
| 2026-05-05 13:41 | 37.77018 | 24.88878 | 21078 ft | 465 kts | 89° |
| 2026-05-05 13:41 | 37.76825 | 24.92957 | 21073 ft | 465 kts | 89° |
| 2026-05-05 13:41 | 37.76632 | 24.97037 | 21084 ft | 465 kts | 89° |
| 2026-05-05 13:41 | 37.76444 | 25.01117 | 21094 ft | 465 kts | 89° |
| 2026-05-05 13:42 | 37.76259 | 25.05196 | 21074 ft | 465 kts | 89° |
| 2026-05-05 13:42 | 37.76072 | 25.09286 | 21076 ft | 465 kts | 89° |
| 2026-05-05 13:42 | 37.75880 | 25.13366 | 21076 ft | 465 kts | 89° |
| 2026-05-05 13:42 | 37.75687 | 25.17435 | 21075 ft | 465 kts | 89° |
| 2026-05-05 13:43 | 37.75493 | 25.21514 | 21072 ft | 465 kts | 89° |
| 2026-05-05 13:43 | 37.75365 | 25.24215 | 21071 ft | 465 kts | 89° |
| 2026-05-05 13:43 | 37.75168 | 25.28347 | 21070 ft | 465 kts | 89° |
| 2026-05-05 13:43 | 37.74972 | 25.32423 | 21071 ft | 464 kts | 89° |
| 2026-05-05 13:44 | 37.74775 | 25.36498 | 21079 ft | 465 kts | 89° |
| 2026-05-05 13:44 | 37.74576 | 25.40575 | 21070 ft | 465 kts | 89° |
| 2026-05-05 13:44 | 37.74377 | 25.44641 | 21065 ft | 465 kts | 89° |
| 2026-05-05 13:44 | 37.74176 | 25.48719 | 21065 ft | 465 kts | 89° |
| 2026-05-05 13:45 | 37.73975 | 25.52796 | 21056 ft | 465 kts | 90° |
| 2026-05-05 13:45 | 37.73769 | 25.56884 | 21054 ft | 465 kts | 90° |
| 2026-05-05 13:45 | 37.73557 | 25.60952 | 21055 ft | 465 kts | 90° |
| 2026-05-05 13:45 | 37.73342 | 25.64972 | 20938 ft | 451 kts | 90° |
| 2026-05-05 13:46 | 37.73131 | 25.68883 | 20389 ft | 442 kts | 90° |
| 2026-05-05 13:46 | 37.72930 | 25.72736 | 19782 ft | 437 kts | 90° |
| 2026-05-05 13:46 | 37.72734 | 25.76543 | 19198 ft | 432 kts | 90° |
| 2026-05-05 13:46 | 37.72539 | 25.80308 | 18637 ft | 427 kts | 90° |
| 2026-05-05 13:47 | 37.72344 | 25.84023 | 18046 ft | 423 kts | 90° |
| 2026-05-05 13:47 | 37.72151 | 25.87708 | 17450 ft | 418 kts | 90° |
| 2026-05-05 13:47 | 37.71958 | 25.91349 | 16994 ft | 410 kts | 90° |
| 2026-05-05 13:47 | 37.71764 | 25.94874 | 16864 ft | 394 kts | 90° |
| 2026-05-05 13:48 | 37.71576 | 25.98252 | 16726 ft | 379 kts | 90° |
| 2026-05-05 13:48 | 37.71395 | 26.01537 | 16393 ft | 371 kts | 90° |
| 2026-05-05 13:48 | 37.71220 | 26.04773 | 15947 ft | 367 kts | 90° |
| 2026-05-05 13:48 | 37.71046 | 26.07975 | 15504 ft | 364 kts | 90° |
| 2026-05-05 13:49 | 37.70874 | 26.11147 | 15061 ft | 360 kts | 90° |
| 2026-05-05 13:49 | 37.70703 | 26.14290 | 14623 ft | 357 kts | 90° |
| 2026-05-05 13:49 | 37.70530 | 26.17392 | 14370 ft | 348 kts | 90° |
| 2026-05-05 13:49 | 37.70357 | 26.20367 | 14228 ft | 329 kts | 90° |
| 2026-05-05 13:50 | 37.70191 | 26.23191 | 13843 ft | 317 kts | 90° |
| 2026-05-05 13:50 | 37.70034 | 26.25947 | 13268 ft | 312 kts | 90° |
| 2026-05-05 13:50 | 37.69882 | 26.28664 | 12664 ft | 308 kts | 90° |
| 2026-05-05 13:50 | 37.69734 | 26.31348 | 12068 ft | 305 kts | 89° |
| 2026-05-05 13:51 | 37.69587 | 26.34000 | 11560 ft | 298 kts | 89° |
| 2026-05-05 13:51 | 37.69441 | 26.36533 | 11366 ft | 282 kts | 89° |
| 2026-05-05 13:51 | 37.69301 | 26.38975 | 10950 ft | 276 kts | 89° |
| 2026-05-05 13:51 | 37.69165 | 26.41381 | 10486 ft | 273 kts | 89° |
| 2026-05-05 13:52 | 37.69029 | 26.43708 | 10274 ft | 260 kts | 89° |
| 2026-05-05 13:52 | 37.68895 | 26.45960 | 9911 ft | 255 kts | 89° |
| 2026-05-05 13:52 | 37.68764 | 26.48181 | 9459 ft | 252 kts | 89° |
| 2026-05-05 13:52 | 37.68637 | 26.50382 | 8972 ft | 251 kts | 89° |
| 2026-05-05 13:53 | 37.68511 | 26.52571 | 8481 ft | 249 kts | 88° |
| 2026-05-05 13:53 | 37.68444 | 26.54745 | 8003 ft | 247 kts | 87° |
| 2026-05-05 13:53 | 37.68151 | 26.56896 | 7536 ft | 251 kts | 103° |
| 2026-05-05 13:53 | 37.67376 | 26.58887 | 7106 ft | 257 kts | 122° |
| 2026-05-05 13:54 | 37.66120 | 26.60516 | 6815 ft | 261 kts | 141° |
| 2026-05-05 13:54 | 37.64517 | 26.61603 | 6537 ft | 262 kts | 161° |
| 2026-05-05 13:54 | 37.62761 | 26.62171 | 6073 ft | 262 kts | 166° |
| 2026-05-05 13:54 | 37.60994 | 26.62836 | 5469 ft | 266 kts | 160° |
| 2026-05-05 13:55 | 37.59343 | 26.63855 | 4969 ft | 263 kts | 146° |
| 2026-05-05 13:55 | 37.57825 | 26.65122 | 4479 ft | 259 kts | 137° |
| 2026-05-05 13:55 | 37.56691 | 26.66775 | 4207 ft | 240 kts | 114° |
| 2026-05-05 13:55 | 37.56031 | 26.68661 | 3960 ft | 233 kts | 105° |
| 2026-05-05 13:56 | 37.55579 | 26.70598 | 3701 ft | 227 kts | 92° |
| 2026-05-05 13:56 | 37.55457 | 26.72564 | 3427 ft | 223 kts | 86° |
| 2026-05-05 13:56 | 37.55416 | 26.74508 | 3148 ft | 222 kts | 86° |
| 2026-05-05 13:56 | 37.55401 | 26.76447 | 2858 ft | 221 kts | 85° |
| 2026-05-05 13:57 | 37.55407 | 26.78384 | 2583 ft | 219 kts | 81° |
| 2026-05-05 13:57 | 37.55619 | 26.80272 | 2327 ft | 215 kts | 71° |
| 2026-05-05 13:57 | 37.56111 | 26.81994 | 2192 ft | 202 kts | 56° |
| 2026-05-05 13:57 | 37.56965 | 26.83289 | 2100 ft | 184 kts | 38° |
| 2026-05-05 13:58 | 37.57925 | 26.84255 | 2006 ft | 169 kts | 28° |
| 2026-05-05 13:58 | 37.58902 | 26.84945 | 1949 ft | 153 kts | 20° |
| 2026-05-05 13:58 | 37.59864 | 26.85400 | 1948 ft | 143 kts | 8° |
| 2026-05-05 13:58 | 37.60831 | 26.85618 | 1956 ft | 141 kts | 5° |
| 2026-05-05 13:59 | 37.62723 | 26.85931 | 1949 ft | 135 kts | 2° |
| 2026-05-05 13:59 | 37.63655 | 26.85966 | 1887 ft | 134 kts | 354° |
| 2026-05-05 14:00 | 37.65516 | 26.85713 | 1587 ft | 134 kts | 352° |
| 2026-05-05 14:00 | 37.66134 | 26.85654 | 1409 ft | 135 kts | 353° |
| 2026-05-05 14:00 | 37.67391 | 26.85615 | 995 ft | 134 kts | 359° |
| 2026-05-05 14:00 | 37.68303 | 26.85900 | 784 ft | 140 kts | 24° |
| 2026-05-05 14:01 | 37.68874 | 26.86866 | 621 ft | 148 kts | 69° |
| 2026-05-05 14:01 | 37.69012 | 26.88178 | 449 ft | 150 kts | 81° |
| 2026-05-05 14:01 | 37.69023 | 26.89498 | 155 ft | 148 kts | 91° |
| 2026-05-05 14:01 | 37.68940 | 26.90755 | 30 ft | 131 kts | 93° |
| 2026-05-05 14:02 | 37.68898 | 26.91549 | 29 ft | 47 kts | 94° |
| 2026-05-05 14:02 | 37.68890 | 26.91681 | 29 ft | 6 kts | 94° |
| 2026-05-05 14:02 | 37.68891 | 26.91693 | 29 ft | 1 kts | 66° |
| 2026-05-05 14:02 | 37.68896 | 26.91694 | 29 ft | 2 kts | 31° |
| 2026-05-05 14:03 | 37.68924 | 26.91691 | 29 ft | 6 kts | 348° |
| 2026-05-05 14:03 | 37.68969 | 26.91674 | 29 ft | 8 kts | 330° |
| 2026-05-05 14:03 | 37.68988 | 26.91619 | 29 ft | 4 kts | 279° |
| 2026-05-05 14:03 | 37.68992 | 26.91589 | 29 ft | 4 kts | 279° |
| 2026-05-05 14:04 | 37.68996 | 26.91562 | 29 ft | 3 kts | 279° |
| 2026-05-05 14:04 | 37.69000 | 26.91533 | 29 ft | 0 kts | 282° |
| 2026-05-05 14:06 | 37.69001 | 26.91530 | 29 ft | 1 kts | 282° |
| 2026-05-05 14:06 | 37.69005 | 26.91506 | 29 ft | 4 kts | 282° |
| 2026-05-05 14:07 | 37.69006 | 26.91463 | 29 ft | 6 kts | 259° |
| 2026-05-05 14:07 | 37.69003 | 26.91446 | 29 ft | 2 kts | 257° |
| 2026-05-05 14:07 | 37.69001 | 26.91438 | 29 ft | 0 kts | 257° |
| 2026-05-05 14:08 | 37.69000 | 26.91428 | 29 ft | 2 kts | 257° |
| 2026-05-05 14:08 | 37.68996 | 26.91403 | 29 ft | 3 kts | 261° |
| 2026-05-05 14:08 | 37.69003 | 26.91381 | 29 ft | 3 kts | 316° |
| 2026-05-05 14:08 | 37.69030 | 26.91377 | 29 ft | 4 kts | 4° |
| 2026-05-05 14:09 | 37.69045 | 26.91378 | 29 ft | 2 kts | 3° |
| 2026-05-05 14:09 | 37.69055 | 26.91378 | 29 ft | 0 kts | 3° |